Thunder radar more information blitzortung!


avis per Pluja more information rain snow radar


Visita la nostra xarxa de llocs de meteo:

Template documentation
and downloads

And another site



Rain From: 17-10-2018 23:00 Until: 18-10-2018 16:59 warning for: Rain Level: Yellow info button

Pagina Historial Weather Underground text

Diari Resum Marc 3, 2016 Unitats:  Mètric    Imperial   Tant
« Previous Dia
SegĂźent Dia »
Diari Setmana Mensual Anual Personalitzada
  Maxima: Minima: Media:
Temperatura: -17.8 °C -13.1 °C -10.2 °C
Punt de rosada: -17.8 °C -18.9 °C -17.6 °C
Humitat: Humidity % 30 % 40 %
Wind Speed: 0 km/h 0 km/h 16.3 km/h
RĂ fegues de vent: 0 km/h - -
Vent:- - WSW
Pression baro: 0 hPa 34222.3 hPa -
Precipitacions: 0 mm    
Historical Graphs
 
 
Dades de taula per Marc 3, 2016
Temps Temperatura Punt de rosada Pression baro Vent Wind Speed RĂ fegues de vent Humitat Rainfall Rate (Hourly)
-17.8 °C -17.8 °C 0 hPa Calm     Humidity % 0 mm
11:16 -11.9 °C -17.3 °C 34327.3 hPa West 20.9 km/h 20.9 km/h 51 % 0 mm
11:21 -11.8 °C -17.2 °C 34327.3 hPa West 23.8 km/h 23.8 km/h 51 % 0 mm
11:26 -11.6 °C -17 °C 34327.3 hPa West 15 km/h 15 km/h 51 % 0 mm
11:31 -11.5 °C -16.9 °C 34327.3 hPa WSW 23.8 km/h 23.8 km/h 51 % 0 mm
11:36 -11.2 °C -16.7 °C 34327.3 hPa WSW 15 km/h 15 km/h 51 % 0 mm
11:41 -11.2 °C -16.8 °C 34327.3 hPa West 20.9 km/h 20.9 km/h 50 % 0 mm
11:46 -11.2 °C -17 °C 34327.3 hPa WNW 26.9 km/h 26.9 km/h 49 % 0 mm
11:51 -11.1 °C -16.8 °C 34327.3 hPa NNW 29.8 km/h 29.8 km/h 49 % 0 mm
11:56 -11 °C -16.9 °C 34327.3 hPa WSW 20.9 km/h 20.9 km/h 48 % 0 mm
12:01 -10.8 °C -16.8 °C 34327.3 hPa West 20.9 km/h 20.9 km/h 48 % 0 mm
12:06 -10.7 °C -16.8 °C 34327.3 hPa West 17.9 km/h 17.9 km/h 47 % 0 mm
12:11 -10.4 °C -16.6 °C 34327.3 hPa NNW 23.8 km/h 23.8 km/h 47 % 0 mm
12:16 -10.4 °C -16.6 °C 34293.4 hPa WSW 20.9 km/h 20.9 km/h 47 % 0 mm
12:21 -10.2 °C -16.3 °C 34293.4 hPa WSW 15 km/h 15 km/h 47 % 0 mm
12:26 -10.2 °C -16.5 °C 34293.4 hPa WSW 15 km/h 15 km/h 46 % 0 mm
12:31 -10.1 °C -16.4 °C 34327.3 hPa ENE 20.3 km/h 20.3 km/h 46 % 0 mm
12:36 -10.1 °C -16.8 °C 34327.3 hPa WNW 24.3 km/h 24.3 km/h 44 % 0 mm
12:41 -9.9 °C -16.7 °C 34327.3 hPa SW 20.9 km/h 20.9 km/h 44 % 0 mm
12:46 -9.9 °C -16.8 °C 34327.3 hPa WSW 23.8 km/h 23.8 km/h 43 % 0 mm
12:51 -9.7 °C -16.6 °C 34327.3 hPa WNW 20.9 km/h 20.9 km/h 43 % 0 mm
12:56 -9.6 °C -16.5 °C 34327.3 hPa West 20.9 km/h 20.9 km/h 43 % 0 mm
13:01 -9.7 °C -16.8 °C 34327.3 hPa West 26.9 km/h 26.9 km/h 42 % 0 mm
13:06 -9.6 °C -16.7 °C 34327.3 hPa WSW 20.9 km/h 20.9 km/h 42 % 0 mm
13:11 -9.5 °C -16.6 °C 34327.3 hPa WSW 17.9 km/h 17.9 km/h 42 % 0 mm
13:16 -9.4 °C -16.5 °C 34327.3 hPa WSW 20.9 km/h 20.9 km/h 42 % 0 mm
13:21 -9.2 °C -16.3 °C 34327.3 hPa WSW 17.9 km/h 17.9 km/h 42 % 0 mm
13:26 -9.1 °C -16.3 °C 34327.3 hPa WSW 15 km/h 15 km/h 42 % 0 mm
13:31 -9.1 °C -16.4 °C 34327.3 hPa WSW 15 km/h 15 km/h 41 % 0 mm
13:36 -9.2 °C -16.5 °C 34327.3 hPa West 23.8 km/h 23.8 km/h 41 % 0 mm
13:41 -9.2 °C -16.7 °C 34327.3 hPa WNW 23.8 km/h 23.8 km/h 40 % 0 mm
13:46 -9 °C -16.3 °C 34293.4 hPa West 17.9 km/h 17.9 km/h 41 % 0 mm
13:51 -8.9 °C -16.5 °C 34293.4 hPa WSW 20.3 km/h 20.3 km/h 40 % 0 mm
13:56 -8.8 °C -16.4 °C 34293.4 hPa WSW 22 km/h 22 km/h 40 % 0 mm
14:01 -8.8 °C -16.3 °C 34256.2 hPa West 20.9 km/h 20.9 km/h 40 % 0 mm
14:06 -8.9 °C -16.6 °C 34256.2 hPa West 23.8 km/h 23.8 km/h 39 % 0 mm
14:11 -8.7 °C -16.4 °C 34256.2 hPa West 17.9 km/h 17.9 km/h 39 % 0 mm
14:16 -8.6 °C -16.6 °C 34256.2 hPa South 17.9 km/h 17.9 km/h 38 % 0 mm
14:21 -8.5 °C -16.5 °C 34256.2 hPa South 17.9 km/h 17.9 km/h 38 % 0 mm
14:26 -8.4 °C -16.4 °C 34256.2 hPa SW 23.8 km/h 23.8 km/h 38 % 0 mm
14:31 -8.3 °C -16.6 °C 34256.2 hPa SSW 17.9 km/h 17.9 km/h 37 % 0 mm
14:36 -8.4 °C -16.8 °C 34256.2 hPa SW 29.8 km/h 29.8 km/h 36 % 0 mm
14:41 -8.2 °C -16.4 °C 34256.2 hPa SSW 20.9 km/h 20.9 km/h 37 % 0 mm
14:46 -8.1 °C -16.8 °C 34256.2 hPa SW 23.8 km/h 23.8 km/h 35 % 0 mm
14:51 -8.1 °C -16.8 °C 34256.2 hPa WSW 19.2 km/h 19.2 km/h 35 % 0 mm
14:56 -8.2 °C -16.9 °C 34256.2 hPa WSW 20.9 km/h 20.9 km/h 35 % 0 mm
15:01 -8.2 °C -17.1 °C 34256.2 hPa West 15 km/h 15 km/h 34 % 0 mm
15:11 -7.9 °C -16.9 °C 34256.2 hPa WNW 15 km/h 15 km/h 34 % 0 mm
15:16 -7.9 °C -17.1 °C 34256.2 hPa NW 11.9 km/h 11.9 km/h 33 % 0 mm
15:21 -7.9 °C -17.3 °C 34256.2 hPa SSW 20.9 km/h 20.9 km/h 32 % 0 mm
15:26 -7.9 °C -17.3 °C 34256.2 hPa WNW 11.9 km/h 11.9 km/h 32 % 0 mm
15:31 -7.8 °C -17.3 °C 34256.2 hPa West 15 km/h 15 km/h 32 % 0 mm
15:36 -7.8 °C -17.4 °C 34256.2 hPa SW 7.6 km/h 7.6 km/h 31 % 0 mm
15:41 -7.7 °C -17.4 °C 34256.2 hPa SSE 9 km/h 9 km/h 31 % 0 mm
15:46 -7.8 °C -17.5 °C 34222.3 hPa SW 17.9 km/h 17.9 km/h 31 % 0 mm
15:51 -7.9 °C -17.6 °C 34222.3 hPa WSW 17.9 km/h 17.9 km/h 31 % 0 mm
15:56 -7.8 °C -17.5 °C 34222.3 hPa West 17.9 km/h 17.9 km/h 31 % 0 mm
16:01 -7.7 °C -17.7 °C 34222.3 hPa West 30.6 km/h 30.6 km/h 30 % 0 mm
16:06 -7.9 °C -17.6 °C 34222.3 hPa SW 35.7 km/h 35.7 km/h 31 % 0 mm
16:11 -8 °C -17.6 °C 34222.3 hPa West 23.8 km/h 23.8 km/h 31 % 0 mm
16:16 -7.9 °C -17.3 °C 34222.3 hPa WSW 17.9 km/h 17.9 km/h 32 % 0 mm
16:21 -7.9 °C -17.3 °C 34222.3 hPa West 14 km/h 14 km/h 32 % 0 mm
16:26 -8.1 °C -17.4 °C 34222.3 hPa WSW 17.9 km/h 17.9 km/h 32 % 0 mm
16:31 -8 °C -17.6 °C 34222.3 hPa West 26.9 km/h 26.9 km/h 31 % 0 mm
16:36 -8.2 °C -17.8 °C 34222.3 hPa West 29.8 km/h 29.8 km/h 31 % 0 mm
16:41 -8.2 °C -17.6 °C 34222.3 hPa WSW 15.6 km/h 15.6 km/h 32 % 0 mm
16:46 -8.2 °C -17.6 °C 34222.3 hPa WSW 17.9 km/h 17.9 km/h 32 % 0 mm
16:51 -8.2 °C -17.6 °C 34222.3 hPa WSW 17.9 km/h 17.9 km/h 32 % 0 mm
16:56 -8.3 °C -17.6 °C 34222.3 hPa WSW 23.8 km/h 23.8 km/h 32 % 0 mm
17:01 -8.4 °C -17.7 °C 34222.3 hPa West 23.8 km/h 23.8 km/h 32 % 0 mm
17:07 -8.2 °C -17.6 °C 34222.3 hPa South 15 km/h 15 km/h 32 % 0 mm
17:12 -8.3 °C -17.4 °C 34222.3 hPa NNW 19.2 km/h 19.2 km/h 33 % 0 mm
17:22 -8.5 °C -17.6 °C 34222.3 hPa WNW 15 km/h 15 km/h 33 % 0 mm
17:32 -8.6 °C -17.7 °C 34222.3 hPa West 23.8 km/h 23.8 km/h 33 % 0 mm
17:37 -8.6 °C -17.9 °C 34222.3 hPa WSW 17.9 km/h 17.9 km/h 32 % 0 mm
17:42 -8.7 °C -17.9 °C 34222.3 hPa SW 20.9 km/h 20.9 km/h 32 % 0 mm
17:47 -8.7 °C -17.7 °C 34256.2 hPa SSW 17.9 km/h 17.9 km/h 33 % 0 mm
17:52 -8.8 °C -17.8 °C 34256.2 hPa SW 26.9 km/h 26.9 km/h 33 % 0 mm
17:57 -8.9 °C -17.9 °C 34256.2 hPa West 20.9 km/h 20.9 km/h 33 % 0 mm
18:02 -8.9 °C -18 °C 34222.3 hPa WSW 20.9 km/h 20.9 km/h 33 % 0 mm
18:07 -9.1 °C -18.1 °C 34222.3 hPa WSW 22 km/h 22 km/h 33 % 0 mm
18:12 -9.1 °C -18.1 °C 34222.3 hPa WNW 20.9 km/h 20.9 km/h 33 % 0 mm
18:17 -9.3 °C -18.3 °C 34256.2 hPa WSW 15 km/h 15 km/h 33 % 0 mm
18:22 -9.3 °C -18.3 °C 34256.2 hPa WNW 15 km/h 15 km/h 33 % 0 mm
18:27 -9.4 °C -18.2 °C 34256.2 hPa West 9 km/h 9 km/h 34 % 0 mm
18:32 -9.6 °C -18.3 °C 34256.2 hPa West 23.8 km/h 23.8 km/h 34 % 0 mm
18:37 -9.7 °C -18.4 °C 34256.2 hPa WSW 14.5 km/h 14.5 km/h 34 % 0 mm
18:42 -9.8 °C -18.6 °C 34256.2 hPa WSW 9 km/h 9 km/h 34 % 0 mm
18:47 -9.9 °C -18.7 °C 34256.2 hPa WSW 11.9 km/h 11.9 km/h 34 % 0 mm
18:52 -10.1 °C -18.7 °C 34256.2 hPa WSW 9 km/h 9 km/h 34 % 0 mm
18:57 -10.2 °C -18.6 °C 34256.2 hPa West 17.9 km/h 17.9 km/h 35 % 0 mm
19:02 -10.2 °C -18.7 °C 34256.2 hPa WSW 11.9 km/h 11.9 km/h 35 % 0 mm
19:07 -10.4 °C -18.8 °C 34256.2 hPa WSW 9 km/h 9 km/h 35 % 0 mm
19:12 -10.5 °C -18.9 °C 34256.2 hPa WSW 11.9 km/h 11.9 km/h 35 % 0 mm
19:17 -10.6 °C -18.7 °C 34222.3 hPa WSW 15 km/h 15 km/h 36 % 0 mm
19:22 -10.6 °C -18.7 °C 34222.3 hPa WNW 9.8 km/h 9.8 km/h 36 % 0 mm
19:27 -10.6 °C -18.8 °C 34222.3 hPa SW 11.9 km/h 11.9 km/h 36 % 0 mm
19:32 -10.6 °C -18.8 °C 34256.2 hPa WSW 11.9 km/h 11.9 km/h 36 % 0 mm
19:37 -10.7 °C -18.9 °C 34256.2 hPa NNE 6.3 km/h 6.8 km/h 36 % 0 mm
19:42 -10.8 °C -18.7 °C 34256.2 hPa WSW 16.1 km/h 16.1 km/h 37 % 0 mm
19:47 -10.8 °C -18.7 °C 34293.4 hPa WSW 17.9 km/h 17.9 km/h 37 % 0 mm
19:52 -10.8 °C -18.8 °C 34293.4 hPa WSW 16.6 km/h 16.6 km/h 37 % 0 mm
19:57 -10.9 °C -18.7 °C 34293.4 hPa West 11.9 km/h 12.7 km/h 38 % 0 mm
20:02 -10.9 °C -18.7 °C 34256.2 hPa West 17.9 km/h 17.9 km/h 38 % 0 mm
20:07 -10.9 °C -18.7 °C 34256.2 hPa WSW 23.8 km/h 23.8 km/h 38 % 0 mm
20:12 -11.1 °C -18.6 °C 34256.2 hPa West 15 km/h 15 km/h 39 % 0 mm
20:22 -11.2 °C -18.5 °C 34293.4 hPa WNW 15 km/h 15 km/h 40 % 0 mm
20:27 -11.2 °C -18.3 °C 34293.4 hPa WNW 23.8 km/h 23.8 km/h 41 % 0 mm
20:32 -11.3 °C -18.4 °C 34293.4 hPa WSW 14.5 km/h 14.5 km/h 41 % 0 mm
20:37 -11.3 °C -18.2 °C 34293.4 hPa SW 18.3 km/h 18.3 km/h 42 % 0 mm
20:42 -11.4 °C -18.2 °C 34293.4 hPa WSW 11.9 km/h 14 km/h 43 % 0 mm
20:47 -11.4 °C -18.2 °C 34293.4 hPa WSW 15 km/h 15 km/h 43 % 0 mm
20:52 -11.5 °C -18.1 °C 34293.4 hPa West 11.9 km/h 11.9 km/h 44 % 0 mm
20:57 -11.6 °C -18.1 °C 34293.4 hPa WSW 15.6 km/h 15.6 km/h 44 % 0 mm
21:02 -11.6 °C -18 °C 34327.3 hPa West 11.9 km/h 11.9 km/h 45 % 0 mm
21:07 -11.7 °C -18.1 °C 34327.3 hPa West 17.9 km/h 17.9 km/h 45 % 0 mm
21:12 -11.7 °C -18.1 °C 34327.3 hPa West 9 km/h 9 km/h 45 % 0 mm
21:17 -11.8 °C -18 °C 34327.3 hPa NE 7.6 km/h 7.6 km/h 46 % 0 mm
21:22 -11.9 °C -18.1 °C 34327.3 hPa WSW 6.3 km/h 6.3 km/h 46 % 0 mm
21:27 -11.9 °C -18.2 °C 34327.3 hPa WNW 15 km/h 15 km/h 46 % 0 mm
21:32 -12 °C -18.2 °C 34293.4 hPa WSW 9.8 km/h 9.8 km/h 46 % 0 mm
21:37 -12 °C -18 °C 34293.4 hPa WSW 7.6 km/h 8.5 km/h 47 % 0 mm
21:42 -12.1 °C -18.1 °C 34293.4 hPa WSW 3.1 km/h 3.7 km/h 47 % 0 mm
21:47 -12.1 °C -18.1 °C 34327.3 hPa WSW 9.3 km/h 9.3 km/h 47 % 0 mm
21:52 -12.1 °C -17.9 °C 34327.3 hPa WNW 15 km/h 15 km/h 48 % 0 mm
21:57 -12.2 °C -18 °C 34327.3 hPa WSW 11.9 km/h 11.9 km/h 48 % 0 mm
22:02 -12.2 °C -17.9 °C 34327.3 hPa WNW 11.9 km/h 11.9 km/h 49 % 0 mm
22:07 -12.3 °C -17.9 °C 34327.3 hPa West 6 km/h 6 km/h 49 % 0 mm
22:12 -12.3 °C -17.9 °C 34327.3 hPa WNW 15.3 km/h 15.3 km/h 49 % 0 mm
22:17 -12.2 °C -17.9 °C 34327.3 hPa ENE 11.9 km/h 11.9 km/h 49 % 0 mm
22:22 -12.3 °C -17.8 °C 34327.3 hPa West 20.9 km/h 20.9 km/h 50 % 0 mm
22:27 -12.3 °C -17.9 °C 34327.3 hPa WNW 6 km/h 6.3 km/h 50 % 0 mm
22:32 -12.4 °C -17.9 °C 34361.1 hPa West 9 km/h 9 km/h 50 % 0 mm
22:37 -12.4 °C -17.9 °C 34361.1 hPa NNE 9 km/h 9 km/h 50 % 0 mm
22:42 -12.4 °C -17.9 °C 34361.1 hPa WNW 15 km/h 15 km/h 50 % 0 mm
22:47 -12.4 °C -17.9 °C 34361.1 hPa NW 9 km/h 9 km/h 50 % 0 mm
22:52 -12.5 °C -17.9 °C 34361.1 hPa NE 9 km/h 9 km/h 51 % 0 mm
22:57 -12.6 °C -18.1 °C 34361.1 hPa WNW 9 km/h 9 km/h 50 % 0 mm
23:02 -12.7 °C -18.2 °C 34361.1 hPa ENE 9 km/h 9 km/h 50 % 0 mm
23:07 -12.7 °C -18.2 °C 34361.1 hPa NNE 9 km/h 9 km/h 50 % 0 mm
23:12 -12.8 °C -18.1 °C 34361.1 hPa NNE 9 km/h 9 km/h 51 % 0 mm
23:17 -12.8 °C -18.2 °C 34361.1 hPa NE 6 km/h 6 km/h 51 % 0 mm
23:22 -12.8 °C -18.2 °C 34361.1 hPa Calm     51 % 0 mm
23:27 -12.9 °C -18.3 °C 34361.1 hPa WNW 3.1 km/h   51 % 0 mm
23:32 -13 °C -18.3 °C 34361.1 hPa Calm     51 % 0 mm
23:37 -13.1 °C -18.4 °C 34361.1 hPa ENE 6 km/h 6 km/h 51 % 0 mm
23:42 -13.1 °C -18.4 °C 34361.1 hPa NE 6 km/h 6 km/h 51 % 0 mm
23:47 -13.1 °C -18.4 °C 34361.1 hPa NNE 6 km/h 6 km/h 51 % 0 mm
Meteo Sesrovires
Elogis d' Weather Underground - 1.5 mb

Guio original per  Jim McMurry - jmcmurry@mwt.net Adaptat per a la plantilla per  Wim van der Kuil - Leuven-Template.eu

Trobareu la nostra informacio del temps tambe a:

Weather Underground

AWEKAS